Shokyu Maru — JG5288 — position and weather

sailwx.info

Track history (hours):
 
Tides and Currents Weather Stations Pressure Air Temp Water Temp Dewpoint Dewpoint Depression Visibility Wind Speed Wind Dir Waves Ship Positions

Shokyu Maru

Last reported at 2016-Sep-29 08:25 UTC. Time now 2016-Sep-29 13:34 UTC.
Position N 35°41' E 139°56'.

Length 91 m; draft 4 m.

Type: Ship. MMSI: 431000253.

Date/timePositionNaut miles runAvg speedWind from/ knotsBaromVisibWave heightAir tempDewpointWater temp
2016-Sep-29 08:25N 35°41' E 139°56'0 0.0
2016-Sep-29 07:33N 35°41' E 139°56'13 1.8
2016-Sep-29 00:33N 35°31' E 139°46'1 0.2
2016-Sep-28 21:33N 35°31' E 139°46'10 5.0
2016-Sep-28 19:33N 35°36' E 139°56'5 1.7
2016-Sep-28 16:32N 35°41' E 139°59'0 0.0
2016-Sep-28 15:29N 35°41' E 139°59'0 0.0
2016-Sep-28 12:32N 35°41' E 139°59'0 0.0
2016-Sep-28 08:29N 35°41' E 139°59'0 0.0
2016-Sep-28 03:32N 35°41' E 139°59'0 0.0
2016-Sep-28 02:32N 35°41' E 139°59'0 0.0
2016-Sep-28 01:32N 35°41' E 139°59'0 0.0
2016-Sep-27 23:32N 35°41' E 139°59'0 0.0
2016-Sep-27 19:32N 35°41' E 139°59'0 0.0
2016-Sep-27 14:32N 35°41' E 139°59'0 0.0
2016-Sep-27 13:32N 35°41' E 139°59'0 0.0
2016-Sep-27 10:32N 35°41' E 139°59'2 0.2
2016-Sep-27 00:21N 35°41' E 139°56'5 1.2
2016-Sep-26 20:33N 35°36' E 139°55'0 0.0
2016-Sep-26 19:31N 35°36' E 139°55'0 0.0
2016-Sep-26 15:31N 35°36' E 139°55'0 0.0
2016-Sep-26 13:28N 35°36' E 139°55'0 0.0
2016-Sep-26 11:31N 35°36' E 139°55'9 3.1
2016-Sep-26 08:32N 35°28' E 140°01'2 0.3
2016-Sep-26 02:32N 35°29' E 139°59'0 0.0
2016-Sep-26 01:32N 35°29' E 139°59'0 0.0
2016-Sep-26 00:32N 35°29' E 139°59'11 3.8
2016-Sep-25 21:32N 35°41' E 139°59'0 0.0
2016-Sep-25 17:32N 35°41' E 139°59'0 0.0
2016-Sep-25 16:32N 35°41' E 139°59'0 0.0
2016-Sep-25 15:32N 35°41' E 139°59'0 0.0
2016-Sep-25 14:32N 35°41' E 139°59'0 0.0
2016-Sep-25 12:32N 35°41' E 139°59'0 0.0
2016-Sep-25 11:32N 35°41' E 139°59'0 0.0
2016-Sep-25 10:32N 35°41' E 139°59'0 0.0
2016-Sep-25 09:32N 35°41' E 139°59'0 0.0
2016-Sep-25 07:32N 35°41' E 139°59'0 0.0
2016-Sep-25 04:32N 35°41' E 139°59'2 0.4
2016-Sep-24 22:16N 35°41' E 139°56'1 1.8
2016-Sep-24 21:33N 35°40' E 139°58'4 2.1
2016-Sep-24 19:33N 35°36' E 139°55'0 0.0
2016-Sep-24 18:33N 35°36' E 139°55'0 0.0
2016-Sep-24 17:33N 35°36' E 139°55'0 0.0
2016-Sep-24 16:33N 35°36' E 139°55'0 0.0
2016-Sep-24 14:33N 35°36' E 139°55'0 0.0
2016-Sep-24 12:30N 35°36' E 139°55'5 2.6
2016-Sep-24 10:33N 35°32' E 139°51'5 5.1
2016-Sep-24 09:31N 35°30' E 139°45'7 1.1
2016-Sep-24 03:33N 35°33' E 139°52'8 7.9
2016-Sep-24 02:33N 35°41' E 139°56'0 0.0
2016-Sep-24 01:33N 35°41' E 139°56'0 0.0
2016-Sep-24 00:33N 35°41' E 139°56'5 0.9
2016-Sep-23 19:28N 35°36' E 139°55'0 0.0
2016-Sep-23 17:31N 35°36' E 139°55'0 0.0
2016-Sep-23 16:31N 35°36' E 139°55'0 0.0
2016-Sep-23 15:31N 35°36' E 139°55'0 0.0
2016-Sep-23 13:31N 35°36' E 139°55'10 2.5
2016-Sep-23 09:34N 35°30' E 139°45'0 0.0
2016-Sep-23 06:32N 35°30' E 139°45'3 1.6
2016-Sep-23 04:33N 35°27' E 139°44'8 8.1
2016-Sep-23 03:33N 35°33' E 139°51'5 5.1
2016-Sep-23 02:33N 35°36' E 139°56'4 3.8
2016-Sep-23 01:24N 35°41' E 139°56'0 0.0
2016-Sep-23 00:30N 35°41' E 139°56'0 0.0
2016-Sep-22 23:24N 35°41' E 139°56'5 1.7
2016-Sep-22 20:28N 35°36' E 139°55'0 0.0
2016-Sep-22 12:31N 35°36' E 139°55'9 1.1
2016-Sep-22 04:33N 35°31' E 139°46'0 0.0
2016-Sep-22 03:33N 35°31' E 139°46'0 0.0
2016-Sep-22 00:33N 35°31' E 139°46'1 0.6
2016-Sep-21 23:34N 35°31' E 139°46'2 2.3
2016-Sep-21 22:33N 35°28' E 139°47'9 3.0
2016-Sep-21 19:33N 35°36' E 139°53'0 0.0
2016-Sep-21 16:33N 35°36' E 139°53'5 0.7
2016-Sep-21 09:17N 35°41' E 139°56'0 0.0
2016-Sep-21 08:29N 35°41' E 139°56'4 1.4
2016-Sep-21 05:33N 35°36' E 139°57'10 5.1
2016-Sep-21 03:31N 35°31' E 139°46'0 0.0
2016-Sep-21 02:31N 35°31' E 139°46'14 1.6
2016-Sep-20 17:28N 35°41' E 139°59'0 0.0
2016-Sep-20 14:28N 35°41' E 139°59'0 0.0
2016-Sep-20 13:10N 35°41' E 139°59'0 0.0
2016-Sep-20 10:28N 35°41' E 139°59'0 0.0
2016-Sep-20 08:28N 35°41' E 139°59'0 0.0
2016-Sep-20 07:28N 35°41' E 139°59'0 0.0
2016-Sep-20 06:16N 35°41' E 139°59'6 1.5
2016-Sep-20 02:33N 35°36' E 139°55'5 1.6
2016-Sep-19 23:33N 35°41' E 139°56'6 1.4
2016-Sep-19 19:33N 35°35' E 139°55'0 0.0
2016-Sep-19 18:27N 35°35' E 139°55'0 0.0
2016-Sep-19 16:30N 35°35' E 139°55'0 0.0
2016-Sep-19 14:33N 35°35' E 139°55'0 0.1
2016-Sep-19 13:33N 35°35' E 139°55'8 8.2
2016-Sep-19 12:33N 35°31' E 139°46'0 0.1
2016-Sep-19 11:31N 35°31' E 139°46'0 0.0
2016-Sep-19 09:31N 35°31' E 139°46'  
Track history (hours):
 
Tides and Currents Weather Stations Pressure Air Temp Water Temp Dewpoint Dewpoint Depression Visibility Wind Speed Wind Dir Waves Ship Positions

Shokyu Maru

Last reported at 2016-Sep-29 08:25 UTC. Time now 2016-Sep-29 13:34 UTC.
Position N 35°41' E 139°56'.

Length 91 m; draft 4 m.

Type: Ship. MMSI: 431000253.

Date/timePositionNaut miles runAvg speedWind from/ knotsBaromVisibWave heightAir tempDewpointWater temp
2016-Sep-29 08:25N 35°41' E 139°56'0 0.0
2016-Sep-29 07:33N 35°41' E 139°56'13 1.8
2016-Sep-29 00:33N 35°31' E 139°46'1 0.2
2016-Sep-28 21:33N 35°31' E 139°46'10 5.0
2016-Sep-28 19:33N 35°36' E 139°56'5 1.7
2016-Sep-28 16:32N 35°41' E 139°59'0 0.0
2016-Sep-28 15:29N 35°41' E 139°59'0 0.0
2016-Sep-28 12:32N 35°41' E 139°59'0 0.0
2016-Sep-28 08:29N 35°41' E 139°59'0 0.0
2016-Sep-28 03:32N 35°41' E 139°59'0 0.0
2016-Sep-28 02:32N 35°41' E 139°59'0 0.0
2016-Sep-28 01:32N 35°41' E 139°59'0 0.0
2016-Sep-27 23:32N 35°41' E 139°59'0 0.0
2016-Sep-27 19:32N 35°41' E 139°59'0 0.0
2016-Sep-27 14:32N 35°41' E 139°59'0 0.0
2016-Sep-27 13:32N 35°41' E 139°59'0 0.0
2016-Sep-27 10:32N 35°41' E 139°59'2 0.2
2016-Sep-27 00:21N 35°41' E 139°56'5 1.2
2016-Sep-26 20:33N 35°36' E 139°55'0 0.0
2016-Sep-26 19:31N 35°36' E 139°55'0 0.0
2016-Sep-26 15:31N 35°36' E 139°55'0 0.0
2016-Sep-26 13:28N 35°36' E 139°55'0 0.0
2016-Sep-26 11:31N 35°36' E 139°55'9 3.1
2016-Sep-26 08:32N 35°28' E 140°01'2 0.3
2016-Sep-26 02:32N 35°29' E 139°59'0 0.0
2016-Sep-26 01:32N 35°29' E 139°59'0 0.0
2016-Sep-26 00:32N 35°29' E 139°59'11 3.8
2016-Sep-25 21:32N 35°41' E 139°59'0 0.0
2016-Sep-25 17:32N 35°41' E 139°59'0 0.0
2016-Sep-25 16:32N 35°41' E 139°59'0 0.0
2016-Sep-25 15:32N 35°41' E 139°59'0 0.0
2016-Sep-25 14:32N 35°41' E 139°59'0 0.0
2016-Sep-25 12:32N 35°41' E 139°59'0 0.0
2016-Sep-25 11:32N 35°41' E 139°59'0 0.0
2016-Sep-25 10:32N 35°41' E 139°59'0 0.0
2016-Sep-25 09:32N 35°41' E 139°59'0 0.0
2016-Sep-25 07:32N 35°41' E 139°59'0 0.0
2016-Sep-25 04:32N 35°41' E 139°59'2 0.4
2016-Sep-24 22:16N 35°41' E 139°56'1 1.8
2016-Sep-24 21:33N 35°40' E 139°58'4 2.1
2016-Sep-24 19:33N 35°36' E 139°55'0 0.0
2016-Sep-24 18:33N 35°36' E 139°55'0 0.0
2016-Sep-24 17:33N 35°36' E 139°55'0 0.0
2016-Sep-24 16:33N 35°36' E 139°55'0 0.0
2016-Sep-24 14:33N 35°36' E 139°55'0 0.0
2016-Sep-24 12:30N 35°36' E 139°55'5 2.6
2016-Sep-24 10:33N 35°32' E 139°51'5 5.1
2016-Sep-24 09:31N 35°30' E 139°45'7 1.1
2016-Sep-24 03:33N 35°33' E 139°52'8 7.9
2016-Sep-24 02:33N 35°41' E 139°56'0 0.0
2016-Sep-24 01:33N 35°41' E 139°56'0 0.0
2016-Sep-24 00:33N 35°41' E 139°56'5 0.9
2016-Sep-23 19:28N 35°36' E 139°55'0 0.0
2016-Sep-23 17:31N 35°36' E 139°55'0 0.0
2016-Sep-23 16:31N 35°36' E 139°55'0 0.0
2016-Sep-23 15:31N 35°36' E 139°55'0 0.0
2016-Sep-23 13:31N 35°36' E 139°55'10 2.5
2016-Sep-23 09:34N 35°30' E 139°45'0 0.0
2016-Sep-23 06:32N 35°30' E 139°45'3 1.6
2016-Sep-23 04:33N 35°27' E 139°44'8 8.1
2016-Sep-23 03:33N 35°33' E 139°51'5 5.1
2016-Sep-23 02:33N 35°36' E 139°56'4 3.8
2016-Sep-23 01:24N 35°41' E 139°56'0 0.0
2016-Sep-23 00:30N 35°41' E 139°56'0 0.0
2016-Sep-22 23:24N 35°41' E 139°56'5 1.7
2016-Sep-22 20:28N 35°36' E 139°55'0 0.0
2016-Sep-22 12:31N 35°36' E 139°55'9 1.1
2016-Sep-22 04:33N 35°31' E 139°46'0 0.0
2016-Sep-22 03:33N 35°31' E 139°46'0 0.0
2016-Sep-22 00:33N 35°31' E 139°46'1 0.6
2016-Sep-21 23:34N 35°31' E 139°46'2 2.3
2016-Sep-21 22:33N 35°28' E 139°47'9 3.0
2016-Sep-21 19:33N 35°36' E 139°53'0 0.0
2016-Sep-21 16:33N 35°36' E 139°53'5 0.7
2016-Sep-21 09:17N 35°41' E 139°56'0 0.0
2016-Sep-21 08:29N 35°41' E 139°56'4 1.4
2016-Sep-21 05:33N 35°36' E 139°57'10 5.1
2016-Sep-21 03:31N 35°31' E 139°46'0 0.0
2016-Sep-21 02:31N 35°31' E 139°46'14 1.6
2016-Sep-20 17:28N 35°41' E 139°59'0 0.0
2016-Sep-20 14:28N 35°41' E 139°59'0 0.0
2016-Sep-20 13:10N 35°41' E 139°59'0 0.0
2016-Sep-20 10:28N 35°41' E 139°59'0 0.0
2016-Sep-20 08:28N 35°41' E 139°59'0 0.0
2016-Sep-20 07:28N 35°41' E 139°59'0 0.0
2016-Sep-20 06:16N 35°41' E 139°59'6 1.5
2016-Sep-20 02:33N 35°36' E 139°55'5 1.6
2016-Sep-19 23:33N 35°41' E 139°56'6 1.4
2016-Sep-19 19:33N 35°35' E 139°55'0 0.0
2016-Sep-19 18:27N 35°35' E 139°55'0 0.0
2016-Sep-19 16:30N 35°35' E 139°55'0 0.0
2016-Sep-19 14:33N 35°35' E 139°55'0 0.1
2016-Sep-19 13:33N 35°35' E 139°55'8 8.2
2016-Sep-19 12:33N 35°31' E 139°46'0 0.1
2016-Sep-19 11:31N 35°31' E 139°46'0 0.0
2016-Sep-19 09:31N 35°31' E 139°46'  

Dump ship's entire track history